CYKD

Aklavik Airport

Aklavik, , Canada
METAR CYKD 160000Z 10002KT 15SM SCT120 M28/M31 A2977 RMK AC4 0.0 SNW CVR MUCHLOOSE LAST STFD OBS/NEXT 161500Z SLP085
Observed Flight Rules
Dec-16 @ 00:00 UTC (6 hours ago) Visual Flight Rules
Wind Visibility Clouds
100° at 2 knots 15 miles
  • Scattered at 12,000' AGL
Temperatures Readings
Current -28°C / -18°F
Dewpoint -31°C / -24°F
Humidity 75%
Altimeter 29.77" Hg
Pressure 1008.5 hPa
Elevation 7
METAR CYKD 160000Z 10002KT 15SM SCT120 M28/M31 A2977 RMK AC4 0.0 SNW CVR MUCHLOOSE LAST STFD OBS/NEXT 161500Z SLP085
Observed Flight Rules
Dec-16 @ 00:00 UTC
(6 hours ago)
VFR
Wind Visibility
100° at 2 knots 15 miles
Clouds
  • Scattered at 12,000' AGL
Temperature Dewpoint
-28°C / -18°F -31°C / -24°F
Humidity Altimeter Pressure
75% 29.77" Hg 1008.5 hPa